Latest Coastal Weather Observations for Broome Port

IDW60701

Issued at 11:32 pm WST Tuesday 7 July 2015 (issued every 10 minutes, with the page automatically refreshed every 10 minutes)

About coastal observations | Map of coastal stations | Coastal observations for WA | Marine services | Other Formats
Station Details ID: 003102 Name: BROOME NTC AWS Lat: -18.00 Lon: 122.22 Height: 0.0 m
Data from the previous 72 hours. | See also: Recent months for locations in Western Australia
Date/Time
WST
Temp

°C
Wind Pressure Rain
since 9am
mm
Weather Cloud Vis
km
Sea
Height
m
Swell
Dir
 
Speed
knots
Gust
knots
hPa Trend Height
m
Period
s
Dir
07/11:30pm 22.7 SW 7 8 1012.3 - - - - - - - - -
07/11:00pm 22.3 SW 8 9 1012.6 - - - - - - - - -
07/10:30pm 22.1 WSW 6 8 1012.7 - - - - - - - - -
07/10:00pm 22.2 W 9 10 1012.7 - - - - - - - - -
07/09:30pm 22.9 WSW 9 10 1012.7 - - - - - - - - -
07/09:00pm 22.8 SW 10 11 1012.7 - - - - - - - - -
07/08:30pm 22.9 WSW 9 10 1012.6 - - - - - - - - -
07/08:00pm 22.4 W 8 9 1012.4 - - - - - - - - -
07/07:30pm 23.3 W 8 12 1012.1 - - - - - - - - -
07/07:00pm 23.4 W 10 14 1011.9 - - - - - - - - -
07/06:30pm 22.9 WSW 10 13 1011.8 - - - - - - - - -
07/06:00pm 22.8 W 10 12 1011.6 - - - - - - - - -
07/05:30pm 22.8 W 11 13 1011.0 - - - - - - - - -
07/05:00pm 23.2 WSW 10 11 1010.7 - - - - - - - - -
07/04:30pm 24.0 WSW 12 14 1010.6 - - - - - - - - -
07/04:00pm 24.9 WSW 10 11 1010.5 - - - - - - - - -
07/03:30pm 24.3 WSW 10 11 1010.4 - - - - - - - - -
07/03:00pm 25.0 WSW 10 11 1010.4 - - - - - - - - -
07/02:30pm 24.9 WSW 9 11 1010.5 - - - - - - - - -
07/02:00pm 23.8 SW 9 11 1010.8 - - - - - - - - -
07/01:30pm 26.8 SSW 6 7 1011.2 - - - - - - - - -
07/01:00pm 25.3 SSW 6 7 1011.7 - - - - - - - - -
07/12:30pm 25.1 S 5 7 1012.1 - - - - - - - - -
07/12:00pm 25.3 SSE 4 5 1012.6 - - - - - - - - -
07/11:30am 24.5 SSE 4 5 1013.1 - - - - - - - - -
07/11:00am 24.1 ESE 4 4 1013.4 - - - - - - - - -
07/10:30am 22.4 SE 5 6 1013.8 - - - - - - - - -
07/10:00am 20.8 ESE 6 8 1014.1 - - - - - - - - -
07/09:30am 20.1 ESE 9 11 1014.4 - - - - - - - - -
07/09:00am 19.3 ESE 9 10 1014.5 - - - - - - - - -
07/08:30am 18.8 ESE 10 12 1014.3 - - - - - - - - -
07/08:00am 18.6 ESE 10 12 1014.1 - - - - - - - - -
07/07:30am 18.2 ESE 9 10 1013.8 - - - - - - - - -
07/07:00am 18.3 ESE 8 10 1013.7 - - - - - - - - -
07/06:30am 18.7 ESE 9 11 1013.5 - - - - - - - - -
07/06:00am 19.4 ESE 9 11 1013.2 - - - - - - - - -
07/05:30am 18.9 ESE 8 9 1013.0 - - - - - - - - -
07/05:00am 18.7 ESE 7 8 1012.9 - - - - - - - - -
07/04:30am 18.7 ESE 8 9 1012.7 - - - - - - - - -
07/04:00am 20.5 SE 11 12 1012.6 - - - - - - - - -
07/03:30am 21.3 SE 9 10 1012.6 - - - - - - - - -
07/03:00am 22.0 SE 9 12 1012.6 - - - - - - - - -
07/02:30am 21.5 SE 9 10 1012.6 - - - - - - - - -
07/02:00am 20.8 SSE 7 8 1013.0 - - - - - - - - -
07/01:30am 20.5 S 7 8 1013.0 - - - - - - - - -
07/01:00am 20.7 S 5 6 1013.3 - - - - - - - - -
07/12:30am 21.0 S 7 9 1013.3 - - - - - - - - -
07/12:00am 21.0 S 9 11 1013.3 - - - - - - - - -
 
Date/Time
WST
Temp

°C
Wind Pressure Rain
since 9am
mm
Weather Cloud Vis
km
Sea
Height
m
Swell
Dir
 
Speed
knots
Gust
knots
hPa Trend Height
m
Period
s
Dir
06/11:30pm 21.1 SSW 10 13 1013.3 - - - - - - - - -
06/11:00pm 21.3 SSW 8 10 1013.6 - - - - - - - - -
06/10:30pm 21.1 SSW 8 9 1013.7 - - - - - - - - -
06/10:00pm 21.3 SSW 9 11 1013.8 - - - - - - - - -
06/09:30pm 22.1 SW 9 12 1013.7 - - - - - - - - -
06/09:00pm 22.3 SSW 11 13 1013.8 - - - - - - - - -
06/08:30pm 22.7 SW 9 12 1013.7 - - - - - - - - -
06/08:00pm 23.2 WSW 8 10 1013.6 - - - - - - - - -
06/07:30pm 24.9 W 9 12 1013.3 - - - - - - - - -
06/07:00pm 24.8 W 9 11 1013.0 - - - - - - - - -
06/06:30pm 23.7 W 9 11 1012.9 - - - - - - - - -
06/06:00pm 23.6 W 8 10 1012.7 - - - - - - - - -
06/05:30pm 24.2 WNW 8 9 1012.4 - - - - - - - - -
06/05:00pm 23.4 WSW 9 11 1012.0 - - - - - - - - -
06/04:30pm 24.1 WSW 9 10 1011.7 - - - - - - - - -
06/04:00pm 24.9 WSW 9 10 1011.8 - - - - - - - - -
06/03:30pm 24.6 WSW 8 9 1011.8 - - - - - - - - -
06/03:00pm 25.4 W 8 10 1011.9 - - - - - - - - -
06/02:30pm 26.2 SSW 5 7 1011.9 - - - - - - - - -
06/02:00pm 25.4 S 6 7 1012.1 - - - - - - - - -
06/01:30pm 24.3 SSW 7 7 1012.3 - - - - - - - - -
06/01:00pm 25.1 SSE 5 6 1012.7 - - - - - - - - -
06/12:30pm 24.9 S 2 4 1013.2 - - - - - - - - -
06/12:00pm 24.5 SSW 2 5 1013.7 - - - - - - - - -
06/11:30am 23.4 S 3 5 1014.3 - - - - - - - - -
06/11:00am 23.0 SE 3 5 1014.8 - - - - - - - - -
06/10:30am 21.2 SE 1 4 1015.1 - - - - - - - - -
06/10:00am 19.5 ESE 4 6 1015.5 - - - - - - - - -
06/09:30am 18.7 E 4 7 1015.7 - - - - - - - - -
06/09:00am 17.6 ESE 8 11 1015.6 - - - - - - - - -
06/08:30am 17.4 ESE 9 13 1015.5 - - - - - - - - -
06/08:00am 17.0 SE 8 10 1015.4 - - - - - - - - -
06/07:30am 16.9 ESE 8 11 1015.1 - - - - - - - - -
06/07:00am 17.0 ESE 9 11 1014.9 - - - - - - - - -
06/06:30am 17.0 ESE 8 11 1014.6 - - - - - - - - -
06/06:00am 16.9 ESE 7 14 1014.6 - - - - - - - - -
06/05:30am 18.3 SE 13 16 1014.3 - - - - - - - - -
06/05:00am 17.9 SE 13 16 1014.1 - - - - - - - - -
06/04:30am 18.5 SE 10 12 1014.0 - - - - - - - - -
06/04:00am 19.0 SE 11 15 1013.9 - - - - - - - - -
06/03:30am 19.5 SSE 8 15 1013.9 - - - - - - - - -
06/03:00am 19.6 SE 11 17 1013.8 - - - - - - - - -
06/02:30am 19.6 SE 4 11 1013.7 - - - - - - - - -
06/02:00am 19.9 ESE 3 9 1013.9 - - - - - - - - -

Other Formats:

Comma delimited format used in spreadsheet applications
http://www.bom.gov.au/fwo/IDW60701/IDW60701.95202.axf

JavaScript Object Notation format (JSON) in row-major order
http://www.bom.gov.au/fwo/IDW60701/IDW60701.95202.json